• Join FlightAware (Why Join?)
  • Login
  • US Flag 
06:05PM EDT


 

Airport Tracker/Info


-or-


 

Live Flight TrackerFlight Track Log ✈ ASH3732 ✈ 02-Mar-2014 ✈ KCLT - KORD

Flight Track Log - Related Links

Times and Time Zones

All times are in EST time to prevent confusion due to time zone crossing. See the ASH3732 flight status page for this flight to view local times or setup timezone preferences in your user account.

Time Position Orientation Groundspeed Altitude Reporting Facility
EST Latitude Longitude Course Direction KTS MPH feet Rate Location/Type
06:52PM 35.1956 -80.9533 186° South 153 176 1,700  Level Atlanta Center
06:54PM 35.1164 -80.9639 186° South 239 275 4,200 1,920 Climbing Atlanta Center
06:55PM 35.0911 -81.0358 247° West 263 303 6,700 2,520 Climbing Atlanta Center
06:55PM 35.1233 -81.0703 319° Northwest 274 315 8,500 2,700 Climbing Atlanta Center
06:56PM 35.1483 -81.0744 352° North 286 329 9,400 2,400 Climbing Atlanta Center
06:56PM 35.2042 -81.0572 14° North 317 365 10,900 1,800 Climbing Atlanta Center
06:57PM 35.2953 -81.0258 16° North 330 380 12,400 2,100 Climbing Atlanta Center
06:58PM 35.3794 -81.0508 346° North 315 362 15,100 2,220 Climbing Atlanta Center
06:59PM 35.4597 -81.0964 335° Northwest 303 349 16,900 1,800 Climbing Atlanta Center
07:00PM 35.5422 -81.1444 335° Northwest 315 362 18,700 1,500 Climbing Atlanta Center
07:01PM 35.6206 -81.1878 336° Northwest 323 372 20,000 1,560 Climbing Atlanta Center
07:02PM 35.7175 -81.2381 337° Northwest 346 398 21,900 1,740 Climbing Atlanta Center
07:03PM 35.8064 -81.2914 334° Northwest 353 406 23,500 1,500 Climbing Atlanta Center
07:04PM 35.8811 -81.3656 321° Northwest 353 406 24,900 1,260 Climbing Atlanta Center
07:05PM 35.9578 -81.4453 320° Northwest 348 400 26,100 1,200 Climbing Atlanta Center
07:06PM 36.0344 -81.5222 321° Northwest 353 406 27,300 1,200 Climbing Atlanta Center
07:07PM 36.1111 -81.5997 321° Northwest 353 406 28,500 1,080 Climbing Atlanta Center
07:08PM 36.1878 -81.6772 321° Northwest 358 412 29,500 840 Climbing Atlanta Center
07:09PM 36.2686 -81.7597 321° Northwest 358 412 30,200 720 Climbing Atlanta Center
07:10PM 36.3494 -81.8425 320° Northwest 363 418 31,000 960 Climbing Atlanta Center
07:11PM 36.4258 -81.9231 320° Northwest 363 418 32,200 840 Climbing Atlanta Center
07:14PM 36.6275 -82.1289 321° Northwest 373 429 34,000 480 Climbing Indianapolis Center
07:15PM 36.7094 -82.2153 320° Northwest 380 437 34,000  Level Indianapolis Center
07:16PM 36.8075 -82.3169 320° Northwest 389 448 34,000  Level Indianapolis Center
07:17PM 36.8889 -82.4031 320° Northwest 389 448 34,000  Level Indianapolis Center
07:18PM 36.9703 -82.4881 320° Northwest 385 443 34,000  Level Indianapolis Center
07:19PM 37.0522 -82.5744 320° Northwest 385 443 34,000  Level Indianapolis Center
07:20PM 37.1353 -82.6617 320° Northwest 387 445 34,000  Level Indianapolis Center
07:21PM 37.2317 -82.7647 320° Northwest 389 448 34,000  Level Indianapolis Center
07:22PM 37.3142 -82.8528 320° Northwest 389 448 34,000  Level Indianapolis Center
07:23PM 37.3953 -82.9392 320° Northwest 389 448 34,000  Level Indianapolis Center
07:24PM 37.4758 -83.0256 320° Northwest 383 441 34,000  Level Indianapolis Center
07:25PM 37.5561 -83.1114 320° Northwest 383 441 34,000 240 Level Indianapolis Center
07:26PM 37.6369 -83.1972 320° Northwest 383 441 34,500 540 Climbing Indianapolis Center
07:27PM 37.7169 -83.2836 320° Northwest 381 438 35,200 720 Climbing Indianapolis Center
07:28PM 37.8100 -83.3847 319° Northwest 381 438 36,000 360 Climbing Indianapolis Center
07:29PM 37.8892 -83.4706 319° Northwest 378 435 36,000  Level Indianapolis Center
07:30PM 37.9694 -83.5567 320° Northwest 377 434 36,000  Level Indianapolis Center
07:31PM 38.0500 -83.6428 320° Northwest 378 435 36,000  Level Indianapolis Center
07:32PM 38.1292 -83.7308 319° Northwest 378 435 36,000  Level Indianapolis Center
07:33PM 38.1822 -83.8344 303° West 358 412 36,000  Level Indianapolis Center
07:34PM 38.1861 -83.9450 273° West 321 369 36,000  Level Indianapolis Center
07:36PM 38.1956 -84.0739 275° West 318 366 36,000  Level Indianapolis Center
07:37PM 38.2383 -84.1783 298° West 333 383 36,000  Level Indianapolis Center
07:38PM 38.2842 -84.2828 299° West 334 384 36,000  Level Indianapolis Center
07:39PM 38.3511 -84.3744 313° West 361 415 36,000  Level Indianapolis Center
07:40PM 38.4503 -84.4356 334° Northwest 391 450 36,000  Level Indianapolis Center
07:41PM 38.5531 -84.4953 336° Northwest 400 460 36,000  Level Indianapolis Center
07:42PM 38.6658 -84.5650 334° Northwest 405 466 36,000  Level Indianapolis Center
07:43PM 38.7694 -84.6269 335° Northwest 407 468 36,000  Level Indianapolis Center
07:44PM 38.8731 -84.6897 335° Northwest 408 470 36,000  Level Indianapolis Center
07:45PM 38.9864 -84.7536 336° Northwest 417 480 36,000 -540 Level Indianapolis Center
07:46PM 39.0897 -84.8164 335° Northwest 414 476 35,000 -1,080 Descending Indianapolis Center
07:47PM 39.1914 -84.8775 335° Northwest 407 468 33,800 -1,260 Descending Indianapolis Center
07:48PM 39.2875 -84.9367 335° Northwest 407 468 32,500 -1,680 Descending Indianapolis Center
07:49PM 39.4117 -85.0119 335° Northwest 410 472 30,400 -1,860 Descending Indianapolis Center
07:50PM 39.5153 -85.0753 335° Northwest 410 472 28,800 -1,200 Descending Indianapolis Center
07:51PM 39.6203 -85.1392 335° Northwest 415 478 28,000 -420 Descending Indianapolis Center
07:52PM 39.7244 -85.2028 335° Northwest 415 478 28,000 -540 Level Indianapolis Center
07:53PM 39.8278 -85.2664 335° Northwest 415 478 27,000 -1,020 Descending Indianapolis Center
07:54PM 39.9258 -85.3256 335° Northwest 402 463 26,000 -540 Descending Indianapolis Center
07:55PM 40.0397 -85.3967 334° Northwest 388 447 26,000  Level Indianapolis Center
07:56PM 40.1350 -85.4547 335° Northwest 386 444 26,000 -480 Level Indianapolis Center
07:57PM 40.2311 -85.5153 334° Northwest 385 443 25,100 -1,020 Descending Indianapolis Center
07:58PM 40.3292 -85.5769 334° Northwest 388 447 24,000 -540 Descending Indianapolis Center
07:59PM 40.4189 -85.6406 332° Northwest 378 435 24,000  Level Indianapolis Center
08:00PM 40.4975 -85.7208 322° Northwest 362 417 24,000  Level Indianapolis Center
08:01PM 40.5814 -85.8042 323° Northwest 372 428 24,000 -420 Level Indianapolis Center
08:02PM 40.6828 -85.9064 323° Northwest 381 438 23,200 -960 Descending Indianapolis Center
08:03PM 40.7628 -85.9886 322° Northwest 373 429 22,100 -1,260 Descending Indianapolis Center
08:04PM 40.8417 -86.0683 323° Northwest 362 417 20,700 -1,080 Descending Indianapolis Center
08:05PM 40.9247 -86.1514 323° Northwest 375 432 20,000 -840 Descending Indianapolis Center
08:06PM 41.0122 -86.2317 325° Northwest 381 438 19,000 -1,080 Descending Indianapolis Center
08:07PM 41.0992 -86.3072 327° Northwest 381 438 17,900 -1,260 Descending Indianapolis Center
08:08PM 41.1833 -86.3806 327° Northwest 373 429 16,500 -840 Descending Indianapolis Center
08:10PM 41.2919 -86.4758 327° Northwest 350 403 16,000 -600 Descending Chicago Center
08:11PM 41.3756 -86.5469 327° Northwest 354 407 15,200 -1,020 Descending Chicago Center
08:12PM 41.4733 -86.6339 326° Northwest 351 404 14,000 -1,080 Descending Chicago Center
08:13PM 41.5531 -86.7033 327° Northwest 345 397 13,000 -1,020 Descending Chicago Center
08:14PM 41.6389 -86.7764 328° Northwest 338 389 12,000 -540 Descending Chicago Center
08:15PM 41.7264 -86.8019 348° North 326 375 12,000 -120 Level Chicago Center
08:16PM 41.8181 -86.8183 352° North 332 382 11,800 -900 Descending Chicago Center
08:17PM 41.9019 -86.8706 335° Northwest 313 360 10,200 -900 Descending Chicago Center
08:18PM 41.9303 -86.9708 291° West 297 342 10,000 -120 Descending Chicago Center
08:19PM 41.9494 -87.0886 282° West 302 348 10,000  Level Chicago Center
08:20PM 41.9681 -87.1986 283° West 302 348 10,000 -60 Level Chicago Center
08:21PM 41.9803 -87.3019 279° West 281 323 9,900 -660 Descending Chicago Center
08:22PM 41.9817 -87.3889 271° West 220 253 8,700 -1,140 Descending Chicago Center
08:23PM 41.9822 -87.4678 271° West 212 244 7,600 -1,260 Descending Chicago Center
08:24PM 41.9825 -87.5586 270° West 225 259 6,200 -1,380 Descending Chicago Center
08:25PM 41.9833 -87.6333 271° West 223 257 5,000 -1,320 Descending Chicago TRACON
08:26PM 41.9833 -87.7000 270° West 209 241 3,700 -1,200 Descending Chicago TRACON
08:27PM 41.9833 -87.7667 270° West 169 194 2,600 -1,020 Descending Chicago TRACON
08:28PM 41.9833 -87.8333 270° West 129 148 1,700 -900 Descending Chicago TRACON
08:29PM 41.9833 -87.8667 270° West 131 151 900 -780 Descending Chicago TRACON